Airfield :
LOGIN :

Register | Disclaimer

   EN    FR    IT 

 










Legend :    VFR   Marginal VFR   IFR   Intensive IFR   Very Intensive IFR
Visi :
Ceiling :
>= 8 km
>= 3000ft
5 to 8 km
1000 to 3000 ft
1500m to 5 km
500 to 1000 ft
800 to 1500m
200 to 500 ft
< 800m
< 200 ft
Symbols :   Thunderstorms  Fog  Heavy snow  Heavy precipitations  Wind > 20 kt
SIGMETs :     Misc.  Thunderstorms  Icing  Turbulence  Mountain Waves  Volcanic Ashes






- Airport Elevation : 1504 ft
- IATA code : PNA


LEPP - Noain Pamplona

CURRENT METAR :
  • 120230Z AUTO 03004KT 010V080 9999 -RA NSC 20/17 Q1014

EXPIRED METARs :
  • 120200Z AUTO 19004KT 150V230 9999 -RA SCT047 BKN059 20/17 Q1015
  • 120130Z AUTO 20004KT 140V270 9999 -RA NSC 21/16 Q1016
  • 120100Z AUTO 14005KT 110V170 CAVOK 21/16 Q1015
  • 120030Z AUTO 20002KT CAVOK 22/16 Q1015
  • 120000Z AUTO 18008KT CAVOK 22/16 Q1015

TAF TAF LEPP
Valid from the 12 at 03:00 until the 13 at 03:00 UTC


120200Z 1203/1303 18007KT 9999 SCT050 TX30/1214Z TN19/1205Z
TEMPO 1203/1205 23015G25KT 3000 SHRA FEW030CB SCT035TCU
PROB30
TEMPO 1203/1205 VRB15G25KT 3000 SHRA TS FEW030CB SCT035TCU
PROB40
TEMPO 1213/1221 VRB15G25KT 3000 SHRA TS SCT030CB



MET'MAP, your aeronautical weather chart ! - Copyright ORBIFLY December 2007 - Disclaimer

ORBIFLY MET'MAP TEAM :

Programming & Development : Alexandra Zaïnal
Concept & original design : Baudouin d'Aumeries
Assistance for programming : Marc-Olivier Méhu
Technical & hardware support : Manuel Goepfert

Contact : metmap@orbifly.com




SOURCES & CREDITS :

   NOAA